Terminal Aerodrome Forecast
Issued by NWS

Current Version | Previous Version | Text Only | Print | Product List | Glossary On
Versions: 1 2 3 4 5 6 7 8 9 10 11 12 13 14
220
FTPA31 PHFO 222327
TAFHNY
TAF
PHNY 222327Z 2300/2324 04020G30KT P6SM VCSH FEW025 SCT040
     FM232000 04028G43KT P6SM VCSH SCT025 SCT040=

USA.gov is the U.S. government's official web portal to all federal, state and local government web resources and services.